New Orleans NAS, Louisiana
Current Conditions -  °F | °C
As of 8:55 PM on Wednesday 22 Oct 2014 (Local Time) from KNBG Reporting Station
Clear Clear  
Wind Chill: 15°   Ceiling: Unl
Heat Index: 15°   Visibility: 10mi
Dew Point: 13°   Wind: 0mph
Humidity: 87%   Direction: NA
Pressure: 30.06"   Gusts: NA
Location:  29.83°N, 90.02°W
Report Text: KNBG 230155Z 00000KT 10SM CLR 15/13 A3006 RMK AO2 SLP176 T01500128 $
Loading
Personal Weather Stations






























Interactive Weather Map
Tropical Storm Tracking
New forecast layout! Learn more

10-Day Weather Forecast

Advertisements
Track Severe Weather on mobile